sensor_id;sensor_type;location;lat;lon;timestamp;P1;durP1;ratioP1;P2;durP2;ratioP2
61897;SDS011;47850;50.274;18.908;2022-07-17T00:02:00;13.70;;;4.50;;
61897;SDS011;47850;50.274;18.908;2022-07-17T00:04:27;6.50;;;4.00;;
61897;SDS011;47850;50.274;18.908;2022-07-17T00:06:54;5.90;;;4.40;;
61897;SDS011;47850;50.274;18.908;2022-07-17T00:09:20;5.90;;;4.30;;
61897;SDS011;47850;50.274;18.908;2022-07-17T00:11:47;6.20;;;4.10;;
61897;SDS011;47850;50.274;18.908;2022-07-17T00:14:14;5.60;;;3.80;;
61897;SDS011;47850;50.274;18.908;2022-07-17T00:16:40;9.00;;;4.40;;
61897;SDS011;47850;50.274;18.908;2022-07-17T00:19:07;6.80;;;4.50;;
61897;SDS011;47850;50.274;18.908;2022-07-17T00:21:34;6.40;;;4.20;;
61897;SDS011;47850;50.274;18.908;2022-07-17T00:24:00;5.30;;;4.20;;
61897;SDS011;47850;50.274;18.908;2022-07-17T00:26:27;6.10;;;4.10;;
61897;SDS011;47850;50.274;18.908;2022-07-17T00:28:53;9.20;;;4.60;;
61897;SDS011;47850;50.274;18.908;2022-07-17T00:31:20;7.50;;;4.50;;
61897;SDS011;47850;50.274;18.908;2022-07-17T00:33:46;6.40;;;4.70;;
61897;SDS011;47850;50.274;18.908;2022-07-17T00:36:13;10.40;;;7.20;;
61897;SDS011;47850;50.274;18.908;2022-07-17T00:38:40;9.80;;;5.90;;
61897;SDS011;47850;50.274;18.908;2022-07-17T00:41:06;5.70;;;4.20;;
61897;SDS011;47850;50.274;18.908;2022-07-17T00:43:33;10.20;;;5.20;;
61897;SDS011;47850;50.274;18.908;2022-07-17T00:46:00;7.00;;;4.30;;
61897;SDS011;47850;50.274;18.908;2022-07-17T00:48:28;5.20;;;3.70;;
61897;SDS011;47850;50.274;18.908;2022-07-17T00:50:56;11.50;;;4.30;;
61897;SDS011;47850;50.274;18.908;2022-07-17T00:53:23;10.30;;;3.90;;
61897;SDS011;47850;50.274;18.908;2022-07-17T00:55:50;6.40;;;3.80;;
61897;SDS011;47850;50.274;18.908;2022-07-17T00:58:18;5.20;;;3.20;;
61897;SDS011;47850;50.274;18.908;2022-07-17T01:00:52;8.50;;;3.70;;
61897;SDS011;47850;50.274;18.908;2022-07-17T01:03:21;6.30;;;3.10;;
61897;SDS011;47850;50.274;18.908;2022-07-17T01:05:49;7.60;;;3.00;;
61897;SDS011;47850;50.274;18.908;2022-07-17T01:08:16;5.60;;;3.50;;
61897;SDS011;47850;50.274;18.908;2022-07-17T01:10:43;5.20;;;3.20;;
61897;SDS011;47850;50.274;18.908;2022-07-17T01:13:10;6.80;;;3.50;;
61897;SDS011;47850;50.274;18.908;2022-07-17T01:15:37;6.10;;;3.10;;
61897;SDS011;47850;50.274;18.908;2022-07-17T01:18:06;5.60;;;3.70;;
61897;SDS011;47850;50.274;18.908;2022-07-17T01:20:34;5.40;;;3.20;;
61897;SDS011;47850;50.274;18.908;2022-07-17T01:23:03;4.20;;;2.70;;
61897;SDS011;47850;50.274;18.908;2022-07-17T01:25:30;10.10;;;3.30;;
61897;SDS011;47850;50.274;18.908;2022-07-17T01:27:58;10.00;;;3.10;;
61897;SDS011;47850;50.274;18.908;2022-07-17T01:30:24;5.20;;;2.60;;
61897;SDS011;47850;50.274;18.908;2022-07-17T01:32:51;4.70;;;2.90;;
61897;SDS011;47850;50.274;18.908;2022-07-17T01:35:18;5.00;;;3.00;;
61897;SDS011;47850;50.274;18.908;2022-07-17T01:37:45;4.70;;;3.40;;
61897;SDS011;47850;50.274;18.908;2022-07-17T01:40:13;6.70;;;3.30;;
61897;SDS011;47850;50.274;18.908;2022-07-17T01:42:46;3.30;;;2.60;;
61897;SDS011;47850;50.274;18.908;2022-07-17T01:45:15;8.60;;;3.50;;
61897;SDS011;47850;50.274;18.908;2022-07-17T01:47:44;6.20;;;3.30;;
61897;SDS011;47850;50.274;18.908;2022-07-17T01:50:12;21.50;;;3.80;;
61897;SDS011;47850;50.274;18.908;2022-07-17T01:52:40;5.80;;;3.50;;
61897;SDS011;47850;50.274;18.908;2022-07-17T01:55:10;6.70;;;2.90;;
61897;SDS011;47850;50.274;18.908;2022-07-17T01:57:38;5.80;;;3.60;;
61897;SDS011;47850;50.274;18.908;2022-07-17T02:00:06;5.30;;;3.40;;
61897;SDS011;47850;50.274;18.908;2022-07-17T02:02:35;5.70;;;3.00;;
61897;SDS011;47850;50.274;18.908;2022-07-17T02:05:02;5.70;;;3.90;;
61897;SDS011;47850;50.274;18.908;2022-07-17T02:07:30;7.60;;;3.90;;
61897;SDS011;47850;50.274;18.908;2022-07-17T02:09:57;5.90;;;3.20;;
61897;SDS011;47850;50.274;18.908;2022-07-17T02:12:24;6.20;;;3.40;;
61897;SDS011;47850;50.274;18.908;2022-07-17T02:14:50;5.70;;;3.30;;
61897;SDS011;47850;50.274;18.908;2022-07-17T02:17:17;3.60;;;2.80;;
61897;SDS011;47850;50.274;18.908;2022-07-17T02:19:43;10.70;;;2.90;;
61897;SDS011;47850;50.274;18.908;2022-07-17T02:22:10;7.70;;;2.90;;
61897;SDS011;47850;50.274;18.908;2022-07-17T02:24:37;6.10;;;3.40;;
61897;SDS011;47850;50.274;18.908;2022-07-17T02:27:03;7.60;;;3.60;;
61897;SDS011;47850;50.274;18.908;2022-07-17T02:29:30;5.90;;;3.50;;
61897;SDS011;47850;50.274;18.908;2022-07-17T02:31:56;6.90;;;3.90;;
61897;SDS011;47850;50.274;18.908;2022-07-17T02:34:23;5.10;;;3.40;;
61897;SDS011;47850;50.274;18.908;2022-07-17T02:36:49;6.00;;;2.90;;
61897;SDS011;47850;50.274;18.908;2022-07-17T02:39:16;6.60;;;4.20;;
61897;SDS011;47850;50.274;18.908;2022-07-17T02:41:42;6.20;;;3.90;;
61897;SDS011;47850;50.274;18.908;2022-07-17T02:44:09;4.80;;;3.50;;
61897;SDS011;47850;50.274;18.908;2022-07-17T02:46:36;8.50;;;3.60;;
61897;SDS011;47850;50.274;18.908;2022-07-17T02:49:02;7.50;;;3.80;;
61897;SDS011;47850;50.274;18.908;2022-07-17T02:51:29;7.50;;;4.00;;
61897;SDS011;47850;50.274;18.908;2022-07-17T02:53:56;5.80;;;3.70;;
61897;SDS011;47850;50.274;18.908;2022-07-17T02:56:22;5.80;;;4.30;;
61897;SDS011;47850;50.274;18.908;2022-07-17T02:58:49;7.80;;;4.10;;
61897;SDS011;47850;50.274;18.908;2022-07-17T03:01:15;8.30;;;4.20;;
61897;SDS011;47850;50.274;18.908;2022-07-17T03:03:42;6.30;;;4.10;;
61897;SDS011;47850;50.274;18.908;2022-07-17T03:06:09;4.40;;;3.30;;
61897;SDS011;47850;50.274;18.908;2022-07-17T03:08:35;6.70;;;2.90;;
61897;SDS011;47850;50.274;18.908;2022-07-17T03:11:02;7.00;;;4.00;;
61897;SDS011;47850;50.274;18.908;2022-07-17T03:13:28;7.00;;;3.90;;
61897;SDS011;47850;50.274;18.908;2022-07-17T03:15:55;7.40;;;4.50;;
61897;SDS011;47850;50.274;18.908;2022-07-17T03:18:22;6.70;;;4.00;;
61897;SDS011;47850;50.274;18.908;2022-07-17T03:20:48;5.30;;;3.40;;
61897;SDS011;47850;50.274;18.908;2022-07-17T03:23:15;5.70;;;3.60;;
61897;SDS011;47850;50.274;18.908;2022-07-17T03:25:41;6.40;;;4.40;;
61897;SDS011;47850;50.274;18.908;2022-07-17T03:28:08;12.30;;;4.90;;
61897;SDS011;47850;50.274;18.908;2022-07-17T03:30:34;8.40;;;3.90;;
61897;SDS011;47850;50.274;18.908;2022-07-17T03:33:01;9.40;;;4.80;;
61897;SDS011;47850;50.274;18.908;2022-07-17T03:35:28;8.20;;;5.00;;
61897;SDS011;47850;50.274;18.908;2022-07-17T03:37:54;7.20;;;4.60;;
61897;SDS011;47850;50.274;18.908;2022-07-17T03:40:21;12.00;;;5.10;;
61897;SDS011;47850;50.274;18.908;2022-07-17T03:42:47;10.20;;;5.50;;
61897;SDS011;47850;50.274;18.908;2022-07-17T03:45:14;9.50;;;5.90;;
61897;SDS011;47850;50.274;18.908;2022-07-17T03:47:40;12.20;;;5.60;;
61897;SDS011;47850;50.274;18.908;2022-07-17T03:50:07;7.30;;;5.20;;
61897;SDS011;47850;50.274;18.908;2022-07-17T03:52:33;10.60;;;6.10;;
61897;SDS011;47850;50.274;18.908;2022-07-17T03:55:00;8.70;;;4.10;;
61897;SDS011;47850;50.274;18.908;2022-07-17T03:57:26;12.40;;;5.50;;
61897;SDS011;47850;50.274;18.908;2022-07-17T03:59:53;12.00;;;4.80;;
61897;SDS011;47850;50.274;18.908;2022-07-17T04:02:20;9.70;;;4.80;;
61897;SDS011;47850;50.274;18.908;2022-07-17T04:04:47;9.40;;;4.80;;
61897;SDS011;47850;50.274;18.908;2022-07-17T04:07:13;7.70;;;4.40;;
61897;SDS011;47850;50.274;18.908;2022-07-17T04:09:56;7.00;;;4.20;;
61897;SDS011;47850;50.274;18.908;2022-07-17T04:12:24;9.60;;;5.50;;
61897;SDS011;47850;50.274;18.908;2022-07-17T04:14:51;9.00;;;4.80;;
61897;SDS011;47850;50.274;18.908;2022-07-17T04:17:18;8.40;;;4.30;;
61897;SDS011;47850;50.274;18.908;2022-07-17T04:19:45;9.00;;;4.40;;
61897;SDS011;47850;50.274;18.908;2022-07-17T04:22:11;8.30;;;4.30;;
61897;SDS011;47850;50.274;18.908;2022-07-17T04:24:38;6.60;;;4.10;;
61897;SDS011;47850;50.274;18.908;2022-07-17T04:27:05;6.90;;;4.20;;
61897;SDS011;47850;50.274;18.908;2022-07-17T04:29:32;8.80;;;4.30;;
61897;SDS011;47850;50.274;18.908;2022-07-17T04:31:59;6.60;;;4.70;;
61897;SDS011;47850;50.274;18.908;2022-07-17T04:34:26;10.40;;;4.50;;
61897;SDS011;47850;50.274;18.908;2022-07-17T04:36:52;5.90;;;3.90;;
61897;SDS011;47850;50.274;18.908;2022-07-17T04:39:20;10.20;;;5.30;;
61897;SDS011;47850;50.274;18.908;2022-07-17T04:41:46;6.60;;;4.10;;
61897;SDS011;47850;50.274;18.908;2022-07-17T04:44:13;7.90;;;4.10;;
61897;SDS011;47850;50.274;18.908;2022-07-17T04:46:40;8.50;;;4.30;;
61897;SDS011;47850;50.274;18.908;2022-07-17T04:49:06;9.10;;;3.50;;
61897;SDS011;47850;50.274;18.908;2022-07-17T04:51:33;6.60;;;3.00;;
61897;SDS011;47850;50.274;18.908;2022-07-17T04:54:00;5.50;;;3.00;;
61897;SDS011;47850;50.274;18.908;2022-07-17T04:56:27;11.30;;;3.20;;
61897;SDS011;47850;50.274;18.908;2022-07-17T04:58:53;7.30;;;2.70;;
61897;SDS011;47850;50.274;18.908;2022-07-17T05:01:20;5.90;;;2.40;;
61897;SDS011;47850;50.274;18.908;2022-07-17T05:03:47;6.10;;;2.50;;
61897;SDS011;47850;50.274;18.908;2022-07-17T05:06:13;7.80;;;2.60;;
61897;SDS011;47850;50.274;18.908;2022-07-17T05:08:40;6.50;;;2.80;;
61897;SDS011;47850;50.274;18.908;2022-07-17T05:11:06;6.80;;;2.20;;
61897;SDS011;47850;50.274;18.908;2022-07-17T05:13:33;6.20;;;2.10;;
61897;SDS011;47850;50.274;18.908;2022-07-17T05:16:00;7.60;;;2.30;;
61897;SDS011;47850;50.274;18.908;2022-07-17T05:18:26;16.70;;;9.60;;
61897;SDS011;47850;50.274;18.908;2022-07-17T05:20:53;6.70;;;3.70;;
61897;SDS011;47850;50.274;18.908;2022-07-17T05:23:20;8.40;;;2.60;;
61897;SDS011;47850;50.274;18.908;2022-07-17T05:25:46;4.60;;;2.40;;
61897;SDS011;47850;50.274;18.908;2022-07-17T05:28:13;7.00;;;2.20;;
61897;SDS011;47850;50.274;18.908;2022-07-17T05:30:39;3.90;;;1.80;;
61897;SDS011;47850;50.274;18.908;2022-07-17T05:33:06;6.50;;;2.60;;
61897;SDS011;47850;50.274;18.908;2022-07-17T05:35:32;4.70;;;1.90;;
61897;SDS011;47850;50.274;18.908;2022-07-17T05:37:59;6.30;;;2.80;;
61897;SDS011;47850;50.274;18.908;2022-07-17T05:40:25;5.00;;;2.20;;
61897;SDS011;47850;50.274;18.908;2022-07-17T05:42:52;4.70;;;2.30;;
61897;SDS011;47850;50.274;18.908;2022-07-17T05:45:19;6.00;;;2.10;;
61897;SDS011;47850;50.274;18.908;2022-07-17T05:47:45;4.20;;;2.00;;
61897;SDS011;47850;50.274;18.908;2022-07-17T05:50:12;6.20;;;2.00;;
61897;SDS011;47850;50.274;18.908;2022-07-17T05:52:38;3.90;;;2.00;;
61897;SDS011;47850;50.274;18.908;2022-07-17T05:55:05;6.70;;;1.80;;
61897;SDS011;47850;50.274;18.908;2022-07-17T05:57:33;5.20;;;1.90;;
61897;SDS011;47850;50.274;18.908;2022-07-17T05:59:59;5.60;;;1.50;;
61897;SDS011;47850;50.274;18.908;2022-07-17T06:02:27;3.20;;;1.50;;
61897;SDS011;47850;50.274;18.908;2022-07-17T06:04:53;4.20;;;1.70;;
61897;SDS011;47850;50.274;18.908;2022-07-17T06:07:20;4.20;;;1.30;;
61897;SDS011;47850;50.274;18.908;2022-07-17T06:09:46;9.00;;;1.70;;
61897;SDS011;47850;50.274;18.908;2022-07-17T06:12:13;8.30;;;3.60;;
61897;SDS011;47850;50.274;18.908;2022-07-17T06:14:39;7.00;;;1.80;;
61897;SDS011;47850;50.274;18.908;2022-07-17T06:17:06;7.40;;;1.50;;
61897;SDS011;47850;50.274;18.908;2022-07-17T06:19:32;4.30;;;1.70;;
61897;SDS011;47850;50.274;18.908;2022-07-17T06:21:59;5.00;;;1.30;;
61897;SDS011;47850;50.274;18.908;2022-07-17T06:24:26;6.80;;;2.60;;
61897;SDS011;47850;50.274;18.908;2022-07-17T06:26:52;4.90;;;1.90;;
61897;SDS011;47850;50.274;18.908;2022-07-17T06:29:19;3.50;;;1.20;;
61897;SDS011;47850;50.274;18.908;2022-07-17T06:31:45;6.20;;;1.40;;
61897;SDS011;47850;50.274;18.908;2022-07-17T06:34:12;4.50;;;1.40;;
61897;SDS011;47850;50.274;18.908;2022-07-17T06:36:38;4.40;;;1.60;;
61897;SDS011;47850;50.274;18.908;2022-07-17T06:39:05;5.40;;;1.30;;
61897;SDS011;47850;50.274;18.908;2022-07-17T06:41:31;4.30;;;1.70;;
61897;SDS011;47850;50.274;18.908;2022-07-17T06:43:58;3.60;;;1.20;;
61897;SDS011;47850;50.274;18.908;2022-07-17T06:46:24;6.00;;;2.00;;
61897;SDS011;47850;50.274;18.908;2022-07-17T06:48:51;7.60;;;2.80;;
61897;SDS011;47850;50.274;18.908;2022-07-17T06:51:18;5.40;;;1.80;;
61897;SDS011;47850;50.274;18.908;2022-07-17T06:53:44;5.20;;;1.80;;
61897;SDS011;47850;50.274;18.908;2022-07-17T06:56:11;4.60;;;1.30;;
61897;SDS011;47850;50.274;18.908;2022-07-17T06:58:38;5.00;;;1.70;;
61897;SDS011;47850;50.274;18.908;2022-07-17T07:01:04;4.60;;;2.10;;
61897;SDS011;47850;50.274;18.908;2022-07-17T07:03:31;3.10;;;1.40;;
61897;SDS011;47850;50.274;18.908;2022-07-17T07:05:57;6.00;;;1.50;;
61897;SDS011;47850;50.274;18.908;2022-07-17T07:08:25;2.90;;;1.30;;
61897;SDS011;47850;50.274;18.908;2022-07-17T07:10:52;5.00;;;1.70;;
61897;SDS011;47850;50.274;18.908;2022-07-17T07:13:19;3.60;;;1.30;;
61897;SDS011;47850;50.274;18.908;2022-07-17T07:15:45;4.40;;;1.80;;
61897;SDS011;47850;50.274;18.908;2022-07-17T07:18:12;5.20;;;1.90;;
61897;SDS011;47850;50.274;18.908;2022-07-17T07:20:39;4.90;;;1.40;;
61897;SDS011;47850;50.274;18.908;2022-07-17T07:23:05;6.70;;;1.60;;
61897;SDS011;47850;50.274;18.908;2022-07-17T07:25:32;5.50;;;1.80;;
61897;SDS011;47850;50.274;18.908;2022-07-17T07:27:58;4.50;;;1.40;;
61897;SDS011;47850;50.274;18.908;2022-07-17T07:30:25;6.10;;;2.10;;
61897;SDS011;47850;50.274;18.908;2022-07-17T07:32:52;6.20;;;2.70;;
61897;SDS011;47850;50.274;18.908;2022-07-17T07:35:18;11.60;;;1.60;;
61897;SDS011;47850;50.274;18.908;2022-07-17T07:37:45;4.90;;;1.80;;
61897;SDS011;47850;50.274;18.908;2022-07-17T07:40:11;6.20;;;1.40;;
61897;SDS011;47850;50.274;18.908;2022-07-17T07:42:39;4.10;;;1.20;;
61897;SDS011;47850;50.274;18.908;2022-07-17T07:45:06;5.50;;;1.30;;
61897;SDS011;47850;50.274;18.908;2022-07-17T07:47:39;5.00;;;1.90;;
61897;SDS011;47850;50.274;18.908;2022-07-17T07:50:10;4.60;;;1.70;;
61897;SDS011;47850;50.274;18.908;2022-07-17T07:52:38;10.50;;;1.20;;
61897;SDS011;47850;50.274;18.908;2022-07-17T07:55:05;4.70;;;1.40;;
61897;SDS011;47850;50.274;18.908;2022-07-17T07:57:34;4.30;;;1.90;;
61897;SDS011;47850;50.274;18.908;2022-07-17T08:00:01;4.90;;;1.20;;
61897;SDS011;47850;50.274;18.908;2022-07-17T08:02:29;7.10;;;1.20;;
61897;SDS011;47850;50.274;18.908;2022-07-17T08:04:56;3.20;;;1.30;;
61897;SDS011;47850;50.274;18.908;2022-07-17T08:07:22;4.60;;;1.20;;
61897;SDS011;47850;50.274;18.908;2022-07-17T08:09:51;3.50;;;1.60;;
61897;SDS011;47850;50.274;18.908;2022-07-17T08:12:17;2.70;;;1.50;;
61897;SDS011;47850;50.274;18.908;2022-07-17T08:14:44;5.50;;;1.30;;
61897;SDS011;47850;50.274;18.908;2022-07-17T08:17:11;3.80;;;1.50;;
61897;SDS011;47850;50.274;18.908;2022-07-17T08:19:38;3.60;;;1.00;;
61897;SDS011;47850;50.274;18.908;2022-07-17T08:22:04;4.60;;;1.00;;
61897;SDS011;47850;50.274;18.908;2022-07-17T08:24:31;5.10;;;0.90;;
61897;SDS011;47850;50.274;18.908;2022-07-17T08:26:57;3.50;;;1.10;;
61897;SDS011;47850;50.274;18.908;2022-07-17T08:29:24;5.70;;;1.00;;
61897;SDS011;47850;50.274;18.908;2022-07-17T08:31:50;3.40;;;0.80;;
61897;SDS011;47850;50.274;18.908;2022-07-17T08:34:19;4.20;;;0.90;;
61897;SDS011;47850;50.274;18.908;2022-07-17T08:36:46;5.30;;;1.10;;
61897;SDS011;47850;50.274;18.908;2022-07-17T08:39:12;2.70;;;1.00;;
61897;SDS011;47850;50.274;18.908;2022-07-17T08:41:39;9.80;;;5.80;;
61897;SDS011;47850;50.274;18.908;2022-07-17T08:44:07;6.30;;;1.60;;
61897;SDS011;47850;50.274;18.908;2022-07-17T08:46:38;4.80;;;1.00;;
61897;SDS011;47850;50.274;18.908;2022-07-17T08:49:06;6.40;;;2.40;;
61897;SDS011;47850;50.274;18.908;2022-07-17T08:51:34;8.10;;;3.60;;
61897;SDS011;47850;50.274;18.908;2022-07-17T08:54:01;4.90;;;2.00;;
61897;SDS011;47850;50.274;18.908;2022-07-17T08:56:28;5.90;;;1.50;;
61897;SDS011;47850;50.274;18.908;2022-07-17T08:58:54;5.40;;;1.10;;
61897;SDS011;47850;50.274;18.908;2022-07-17T09:01:22;8.40;;;1.00;;
61897;SDS011;47850;50.274;18.908;2022-07-17T09:03:54;4.40;;;0.80;;
61897;SDS011;47850;50.274;18.908;2022-07-17T09:06:23;4.00;;;1.00;;
61897;SDS011;47850;50.274;18.908;2022-07-17T09:11:46;7.00;;;1.10;;
61897;SDS011;47850;50.274;18.908;2022-07-17T09:14:17;11.40;;;1.00;;
61897;SDS011;47850;50.274;18.908;2022-07-17T09:16:56;5.20;;;1.10;;
61897;SDS011;47850;50.274;18.908;2022-07-17T09:19:27;6.70;;;1.10;;
61897;SDS011;47850;50.274;18.908;2022-07-17T09:24:46;2.90;;;0.80;;
61897;SDS011;47850;50.274;18.908;2022-07-17T09:27:15;5.00;;;2.40;;
61897;SDS011;47850;50.274;18.908;2022-07-17T09:32:26;3.30;;;1.10;;
61897;SDS011;47850;50.274;18.908;2022-07-17T09:34:55;3.00;;;1.10;;
61897;SDS011;47850;50.274;18.908;2022-07-17T09:37:27;3.00;;;0.80;;
61897;SDS011;47850;50.274;18.908;2022-07-17T09:39:55;4.20;;;0.90;;
61897;SDS011;47850;50.274;18.908;2022-07-17T09:47:25;2.70;;;1.00;;
61897;SDS011;47850;50.274;18.908;2022-07-17T09:49:53;8.10;;;2.10;;
61897;SDS011;47850;50.274;18.908;2022-07-17T09:52:28;7.00;;;1.60;;
61897;SDS011;47850;50.274;18.908;2022-07-17T09:54:57;5.60;;;1.20;;
61897;SDS011;47850;50.274;18.908;2022-07-17T09:57:29;2.40;;;0.90;;
61897;SDS011;47850;50.274;18.908;2022-07-17T09:59:58;2.20;;;0.60;;
61897;SDS011;47850;50.274;18.908;2022-07-17T10:02:29;5.10;;;1.00;;
61897;SDS011;47850;50.274;18.908;2022-07-17T10:04:56;3.00;;;0.80;;
61897;SDS011;47850;50.274;18.908;2022-07-17T10:07:24;4.60;;;0.70;;
61897;SDS011;47850;50.274;18.908;2022-07-17T10:09:51;4.00;;;2.00;;
61897;SDS011;47850;50.274;18.908;2022-07-17T10:12:18;5.40;;;1.00;;
61897;SDS011;47850;50.274;18.908;2022-07-17T10:14:46;2.60;;;0.80;;
61897;SDS011;47850;50.274;18.908;2022-07-17T10:17:19;5.30;;;1.00;;
61897;SDS011;47850;50.274;18.908;2022-07-17T10:19:48;8.90;;;1.00;;
61897;SDS011;47850;50.274;18.908;2022-07-17T10:22:24;3.90;;;0.90;;
61897;SDS011;47850;50.274;18.908;2022-07-17T10:24:53;3.00;;;0.90;;
61897;SDS011;47850;50.274;18.908;2022-07-17T10:27:21;4.70;;;0.90;;
61897;SDS011;47850;50.274;18.908;2022-07-17T10:30:05;2.50;;;0.90;;
61897;SDS011;47850;50.274;18.908;2022-07-17T10:32:36;4.00;;;1.20;;
61897;SDS011;47850;50.274;18.908;2022-07-17T10:35:08;2.70;;;1.00;;
61897;SDS011;47850;50.274;18.908;2022-07-17T10:42:43;8.80;;;3.20;;
61897;SDS011;47850;50.274;18.908;2022-07-17T10:45:27;3.10;;;1.10;;
61897;SDS011;47850;50.274;18.908;2022-07-17T10:50:37;3.60;;;1.10;;
61897;SDS011;47850;50.274;18.908;2022-07-17T10:55:45;7.80;;;1.20;;
61897;SDS011;47850;50.274;18.908;2022-07-17T11:08:51;4.30;;;1.10;;
61897;SDS011;47850;50.274;18.908;2022-07-17T11:11:21;3.20;;;1.10;;
61897;SDS011;47850;50.274;18.908;2022-07-17T11:13:50;4.10;;;1.60;;
61897;SDS011;47850;50.274;18.908;2022-07-17T11:16:23;5.50;;;1.00;;
61897;SDS011;47850;50.274;18.908;2022-07-17T11:18:54;3.40;;;1.70;;
61897;SDS011;47850;50.274;18.908;2022-07-17T11:21:21;4.90;;;1.30;;
61897;SDS011;47850;50.274;18.908;2022-07-17T11:23:52;3.20;;;1.40;;
61897;SDS011;47850;50.274;18.908;2022-07-17T11:26:20;4.70;;;1.30;;
61897;SDS011;47850;50.274;18.908;2022-07-17T11:28:48;2.60;;;0.90;;
61897;SDS011;47850;50.274;18.908;2022-07-17T11:33:49;4.00;;;0.90;;
61897;SDS011;47850;50.274;18.908;2022-07-17T11:36:33;2.70;;;0.90;;
61897;SDS011;47850;50.274;18.908;2022-07-17T11:39:06;3.60;;;1.00;;
61897;SDS011;47850;50.274;18.908;2022-07-17T11:41:45;3.00;;;0.90;;
61897;SDS011;47850;50.274;18.908;2022-07-17T11:44:15;3.40;;;1.00;;
61897;SDS011;47850;50.274;18.908;2022-07-17T11:46:44;3.10;;;0.90;;
61897;SDS011;47850;50.274;18.908;2022-07-17T11:49:24;2.80;;;0.90;;
61897;SDS011;47850;50.274;18.908;2022-07-17T11:51:56;3.40;;;1.00;;
61897;SDS011;47850;50.274;18.908;2022-07-17T11:54:25;2.90;;;0.90;;
61897;SDS011;47850;50.274;18.908;2022-07-17T11:56:55;2.40;;;0.70;;
61897;SDS011;47850;50.274;18.908;2022-07-17T11:59:28;4.80;;;1.00;;
61897;SDS011;47850;50.274;18.908;2022-07-17T12:01:56;3.80;;;1.20;;
61897;SDS011;47850;50.274;18.908;2022-07-17T12:04:23;2.60;;;1.00;;
61897;SDS011;47850;50.274;18.908;2022-07-17T12:06:59;3.80;;;1.00;;
61897;SDS011;47850;50.274;18.908;2022-07-17T12:09:28;3.00;;;0.80;;
61897;SDS011;47850;50.274;18.908;2022-07-17T12:11:56;5.50;;;1.00;;
61897;SDS011;47850;50.274;18.908;2022-07-17T12:14:22;5.20;;;0.90;;
61897;SDS011;47850;50.274;18.908;2022-07-17T12:16:49;4.50;;;1.00;;
61897;SDS011;47850;50.274;18.908;2022-07-17T12:19:16;4.80;;;1.00;;
61897;SDS011;47850;50.274;18.908;2022-07-17T12:21:46;6.10;;;1.30;;
61897;SDS011;47850;50.274;18.908;2022-07-17T12:24:33;4.10;;;1.20;;
61897;SDS011;47850;50.274;18.908;2022-07-17T12:27:06;3.50;;;1.30;;
61897;SDS011;47850;50.274;18.908;2022-07-17T12:29:35;3.30;;;1.00;;
61897;SDS011;47850;50.274;18.908;2022-07-17T12:32:08;4.60;;;1.10;;
61897;SDS011;47850;50.274;18.908;2022-07-17T12:34:38;4.50;;;1.20;;
61897;SDS011;47850;50.274;18.908;2022-07-17T12:37:13;3.10;;;0.80;;
61897;SDS011;47850;50.274;18.908;2022-07-17T12:39:44;6.50;;;1.00;;
61897;SDS011;47850;50.274;18.908;2022-07-17T12:42:12;2.50;;;0.90;;
61897;SDS011;47850;50.274;18.908;2022-07-17T12:44:39;4.50;;;1.00;;
61897;SDS011;47850;50.274;18.908;2022-07-17T12:47:08;6.00;;;0.80;;
61897;SDS011;47850;50.274;18.908;2022-07-17T12:49:35;4.20;;;0.90;;
61897;SDS011;47850;50.274;18.908;2022-07-17T12:52:02;4.10;;;0.90;;
61897;SDS011;47850;50.274;18.908;2022-07-17T12:54:29;7.00;;;1.10;;
61897;SDS011;47850;50.274;18.908;2022-07-17T12:56:57;4.50;;;0.90;;
61897;SDS011;47850;50.274;18.908;2022-07-17T12:59:24;4.70;;;0.80;;
61897;SDS011;47850;50.274;18.908;2022-07-17T13:01:50;3.70;;;1.00;;
61897;SDS011;47850;50.274;18.908;2022-07-17T13:04:17;6.80;;;1.10;;
61897;SDS011;47850;50.274;18.908;2022-07-17T13:06:46;2.10;;;0.90;;
61897;SDS011;47850;50.274;18.908;2022-07-17T13:09:13;3.00;;;1.00;;
61897;SDS011;47850;50.274;18.908;2022-07-17T13:11:43;1.40;;;0.80;;
61897;SDS011;47850;50.274;18.908;2022-07-17T13:14:10;3.70;;;1.10;;
61897;SDS011;47850;50.274;18.908;2022-07-17T13:19:07;3.70;;;0.80;;
61897;SDS011;47850;50.274;18.908;2022-07-17T13:21:34;6.60;;;1.20;;
61897;SDS011;47850;50.274;18.908;2022-07-17T13:24:00;3.60;;;0.80;;
61897;SDS011;47850;50.274;18.908;2022-07-17T13:26:27;3.30;;;1.00;;
61897;SDS011;47850;50.274;18.908;2022-07-17T13:28:54;4.60;;;0.90;;
61897;SDS011;47850;50.274;18.908;2022-07-17T13:31:21;2.80;;;0.90;;
61897;SDS011;47850;50.274;18.908;2022-07-17T13:33:47;4.80;;;1.00;;
61897;SDS011;47850;50.274;18.908;2022-07-17T13:36:14;2.50;;;1.00;;
61897;SDS011;47850;50.274;18.908;2022-07-17T13:38:40;1.90;;;1.00;;
61897;SDS011;47850;50.274;18.908;2022-07-17T13:41:07;2.80;;;0.90;;
61897;SDS011;47850;50.274;18.908;2022-07-17T13:43:33;5.70;;;1.10;;
61897;SDS011;47850;50.274;18.908;2022-07-17T13:46:00;3.80;;;0.90;;
61897;SDS011;47850;50.274;18.908;2022-07-17T13:48:27;4.00;;;1.20;;
61897;SDS011;47850;50.274;18.908;2022-07-17T13:50:54;4.70;;;1.10;;
61897;SDS011;47850;50.274;18.908;2022-07-17T13:53:20;1.90;;;1.00;;
61897;SDS011;47850;50.274;18.908;2022-07-17T13:55:47;5.80;;;1.30;;
61897;SDS011;47850;50.274;18.908;2022-07-17T13:58:14;3.10;;;1.00;;
61897;SDS011;47850;50.274;18.908;2022-07-17T14:00:41;4.20;;;0.80;;
61897;SDS011;47850;50.274;18.908;2022-07-17T14:03:07;3.80;;;1.20;;
61897;SDS011;47850;50.274;18.908;2022-07-17T14:05:34;3.30;;;1.00;;
61897;SDS011;47850;50.274;18.908;2022-07-17T14:08:01;8.70;;;1.30;;
61897;SDS011;47850;50.274;18.908;2022-07-17T14:10:27;2.10;;;0.90;;
61897;SDS011;47850;50.274;18.908;2022-07-17T14:12:54;3.30;;;1.20;;
61897;SDS011;47850;50.274;18.908;2022-07-17T14:15:21;5.00;;;0.90;;
61897;SDS011;47850;50.274;18.908;2022-07-17T14:17:48;3.60;;;2.00;;
61897;SDS011;47850;50.274;18.908;2022-07-17T14:20:14;4.30;;;1.20;;
61897;SDS011;47850;50.274;18.908;2022-07-17T14:22:41;5.40;;;1.20;;
61897;SDS011;47850;50.274;18.908;2022-07-17T14:25:08;3.90;;;1.00;;
61897;SDS011;47850;50.274;18.908;2022-07-17T14:27:34;2.10;;;0.90;;
61897;SDS011;47850;50.274;18.908;2022-07-17T14:30:01;2.80;;;0.90;;
61897;SDS011;47850;50.274;18.908;2022-07-17T14:32:27;4.00;;;1.20;;
61897;SDS011;47850;50.274;18.908;2022-07-17T14:34:54;2.70;;;1.10;;
61897;SDS011;47850;50.274;18.908;2022-07-17T14:37:21;4.40;;;1.20;;
61897;SDS011;47850;50.274;18.908;2022-07-17T14:39:47;3.90;;;0.90;;
61897;SDS011;47850;50.274;18.908;2022-07-17T14:42:14;2.50;;;0.80;;
61897;SDS011;47850;50.274;18.908;2022-07-17T14:44:40;6.10;;;1.00;;
61897;SDS011;47850;50.274;18.908;2022-07-17T14:47:07;5.00;;;0.80;;
61897;SDS011;47850;50.274;18.908;2022-07-17T14:49:33;3.10;;;1.00;;
61897;SDS011;47850;50.274;18.908;2022-07-17T14:52:00;6.60;;;1.20;;
61897;SDS011;47850;50.274;18.908;2022-07-17T14:54:27;5.70;;;0.90;;
61897;SDS011;47850;50.274;18.908;2022-07-17T14:56:53;3.30;;;1.10;;
61897;SDS011;47850;50.274;18.908;2022-07-17T14:59:20;3.20;;;1.20;;
61897;SDS011;47850;50.274;18.908;2022-07-17T15:01:46;3.00;;;0.90;;
61897;SDS011;47850;50.274;18.908;2022-07-17T15:04:13;1.30;;;0.80;;
61897;SDS011;47850;50.274;18.908;2022-07-17T15:06:40;5.50;;;1.00;;
61897;SDS011;47850;50.274;18.908;2022-07-17T15:09:10;3.00;;;1.10;;
61897;SDS011;47850;50.274;18.908;2022-07-17T15:11:38;4.30;;;1.00;;
61897;SDS011;47850;50.274;18.908;2022-07-17T15:14:05;7.40;;;1.40;;
61897;SDS011;47850;50.274;18.908;2022-07-17T15:16:31;3.60;;;1.30;;